Gifford, IL (61847)

6:57 AM CST on February 12, 2016 (GMT -0600)
Flatville | | Change Station
CLOSE
Current Station
Personal Weather Station
Location: Thomasboro, IL
Elevation: 686 ft
Nearby Weather Stations

Elev 686 ft 40.24 °N, 88.06 °W | Updated 11 minutes ago

Overcast
Overcast
20.5 °F
Feels Like 20 °F
N
0.0
Wind Variable Wind from SW
Gusts 1.0 mph

Today
High -- | Low -- °F
--% Chance of Precip.
Yesterday
High -- | Low -- °F
Precip. -- in
Pressure 30.20 in
Visibility 10.0 miles
Clouds Overcast 7000 ft
Windchill 20 °F
Dew Point 18 °F
Humidity 89%
Rainfall 0.00 in
Snow Depth Not available.
6:49 AM 5:23 PM
Waxing Crescent, 20% visible
METAR KTIP 121235Z AUTO 25004KT 10SM OVC070 M05/M07 A3020 RMK AO2 T10531073
Pressure 30.20 in
Visibility 10.0 miles
Clouds Overcast 7000 ft
Windchill 20 °F
Dew Point 18 °F
Humidity 89%
Rainfall 0.00 in
Snow Depth Not available.
6:49 AM 5:23 PM
Waxing Crescent, 20% visible
METAR KTIP 121235Z AUTO 25004KT 10SM OVC070 M05/M07 A3020 RMK AO2 T10531073

10-Day Weather Forecast

Almanac

Astronomy

Feb. 12, 2016 Rise Set
Actual Time
Civil Twilight
Nautical Twilight
Astronomical Twilight
Moon
Length of Visible Light
Length of Day
Tomorrow will be .
, % of the Moon is Illuminated

Today's Extremes

State Highs State Lows

Community

WunderPhotos

Upload Photos

1,892,300 photos uploaded!

WunderBlog® & News

Nearby

Air Quality

  Air Quality AQ Index Pollutant
Not available.

Snow Depth

Station Depth Elevation

Earthquake Activity

City Distance Mag. Time & Date
Minimum magnitude displayed is 2.5.

Coastal Water Temperatures

Place Temperature

Stations

Nearby Weather Stations

Station Location Temp. Windchill Dew Point Humidity Wind Precip. Elev Updated Type
                   

Watches & Warnings

There are currently no watches in effect.